• Join FlightAware (Why Join?)
  • Login
  • US Flag 
11:44AM EDT


 

Airport Tracker/Info


-or-


 

Live Flight TrackerFlight Track Log ✈ N17773 ✈ 22-May-2013 ✈ KDEN - KOAK

Flight Track Log - Related Links

Times and Time Zones

All times are in EDT time to prevent confusion due to time zone crossing. See the N17773 flight status page for this flight to view local times or setup timezone preferences in your user account.

Time Position Orientation Groundspeed Altitude Reporting Facility
EDT Latitude Longitude Course Direction KTS MPH feet Rate Location/Type
08:42PM 39.9000 -104.6000 339° North 181 208 6,600  Level Denver TRACON
08:43PM 39.9667 -104.6333 339° North 252 290 7,700 900 Climbing Denver TRACON
08:44PM 40.0136 -104.6514 344° North 254 292 8,300 1,080 Climbing Denver Center
08:45PM 40.0881 -104.6919 337° Northwest 288 331 9,600 1,080 Climbing Denver Center
08:46PM 40.1111 -104.8075 285° West 314 361 10,600 1,380 Climbing Denver Center
08:47PM 40.1242 -104.9314 278° West 341 392 12,500 1,980 Climbing Denver Center
08:48PM 40.1147 -105.0547 264° West 325 374 14,800 1,800 Climbing Denver Center
08:49PM 40.0567 -105.1456 230° Southwest 331 381 16,200 1,500 Climbing Denver Center
08:50PM 39.9814 -105.2161 216° Southwest 334 384 17,900 1,560 Climbing Denver Center
08:51PM 39.8947 -105.2878 212° Southwest 343 395 19,500 1,620 Climbing Denver Center
08:52PM 39.8181 -105.3611 216° Southwest 344 396 21,300 1,500 Climbing Denver Center
08:53PM 39.7461 -105.4492 223° Southwest 331 381 22,600 780 Climbing Denver Center
08:54PM 39.6789 -105.5406 226° Southwest 351 404 22,900 480 Climbing Denver Center
08:55PM 39.6342 -105.6617 244° Southwest 373 429 23,700 1,020 Climbing Denver Center
08:56PM 39.6028 -105.7714 250° West 380 437 25,000 1,440 Climbing Denver Center
08:57PM 39.6028 -105.9183 270° West 365 420 26,700 900 Climbing Denver Center
08:58PM 39.6128 -106.0567 275° West 381 438 26,900 600 Climbing Denver Center
08:59PM 39.5969 -106.2303 263° West 402 463 28,000 1,200 Climbing Denver Center
09:00PM 39.5872 -106.3697 265° West 390 449 29,400 720 Climbing Denver Center
09:01PM 39.5733 -106.5083 263° West 390 449 29,600 420 Climbing Denver Center
09:02PM 39.5556 -106.6492 261° West 410 472 30,300 780 Climbing Denver Center
09:03PM 39.5444 -106.8156 265° West 415 478 31,200 720 Climbing Denver Center
09:04PM 39.5300 -106.9583 263° West 410 472 31,800 600 Climbing Denver Center
09:05PM 39.5153 -107.1258 264° West 419 482 32,500 720 Climbing Denver Center
09:06PM 39.5014 -107.2706 263° West 421 484 33,300 660 Climbing Denver Center
09:07PM 39.4883 -107.4372 264° West 418 481 34,000 300 Climbing Denver Center
09:09PM 39.4717 -107.6042 263° West 419 482 34,100  Climbing Denver Center
09:10PM 39.4542 -107.7758 263° West 428 493 34,000 -60 Descending Denver Center
09:11PM 39.4383 -107.9253 262° West 436 502 34,000  Level Denver Center
09:12PM 39.4228 -108.0989 263° West 434 499 34,000  Level Denver Center
09:13PM 39.4056 -108.2489 262° West 438 504 34,000  Level Denver Center
09:14PM 39.3908 -108.3972 263° West 435 501 34,000  Level Denver Center
09:15PM 39.3736 -108.5725 263° West 435 501 34,000  Level Denver Center
09:16PM 39.3564 -108.7219 262° West 435 501 34,000  Level Denver Center
09:17PM 39.3394 -108.8725 262° West 437 503 34,000  Level Denver Center
09:18PM 39.3208 -109.0464 262° West 434 499 34,000  Level Denver Center
09:19PM 39.3050 -109.1950 262° West 433 498 34,000  Level Denver Center
09:20PM 39.2856 -109.3650 262° West 428 493 34,000  Level Denver Center
09:21PM 39.2681 -109.5103 261° West 427 491 34,000  Level Denver Center
09:22PM 39.2458 -109.7033 262° West 426 490 34,000  Level Denver Center
09:23PM 39.2269 -109.8717 262° West 423 487 34,000  Level Salt Lake Center
09:24PM 39.2122 -110.0153 263° West 422 486 34,000  Level Salt Lake Center
09:25PM 39.1986 -110.1614 263° West 426 490 34,000  Level Salt Lake Center
09:26PM 39.1881 -110.3303 265° West 425 489 34,000  Level Salt Lake Center
09:27PM 39.1792 -110.4750 266° West 424 488 34,000  Level Salt Lake Center
09:28PM 39.1672 -110.6411 265° West 418 481 34,000  Level Salt Lake Center
09:29PM 39.1597 -110.7839 266° West 417 480 34,000  Level Salt Lake Center
09:30PM 39.1528 -110.9278 266° West 421 484 34,000  Level Salt Lake Center
09:31PM 39.1431 -111.0947 266° West 419 482 34,000  Level Salt Lake Center
09:32PM 39.1356 -111.2369 266° West 417 480 34,000  Level Salt Lake Center
09:33PM 39.1289 -111.3917 267° West 420 483 34,000  Level Salt Lake Center
09:34PM 39.1219 -111.5383 267° West 414 476 34,000  Level Salt Lake Center
09:35PM 39.1064 -111.6861 262° West 418 481 34,000  Level Salt Lake Center
09:36PM 39.0872 -111.8303 260° West 414 476 34,000  Level Salt Lake Center
09:37PM 39.0706 -111.9764 262° West 413 475 34,000  Level Salt Lake Center
09:39PM 39.0492 -112.1528 261° West 416 479 34,000  Level Salt Lake Center
09:40PM 39.0325 -112.2992 262° West 416 479 34,000  Level Salt Lake Center
09:41PM 39.0153 -112.4453 261° West 415 478 34,000  Level Salt Lake Center
09:42PM 38.9969 -112.5911 261° West 415 478 34,000  Level Salt Lake Center
09:43PM 38.9792 -112.7369 261° West 415 478 34,000  Level Salt Lake Center
09:44PM 38.9611 -112.8825 261° West 416 479 34,000  Level Salt Lake Center
09:45PM 38.9428 -113.0258 261° West 413 475 34,000  Level Salt Lake Center
09:46PM 38.9256 -113.1700 261° West 410 472 34,000  Level Salt Lake Center
09:47PM 38.9097 -113.3136 262° West 410 472 34,000  Level Salt Lake Center
09:48PM 38.8867 -113.4814 260° West 404 465 34,000  Level Salt Lake Center
09:49PM 38.8683 -113.6192 260° West 397 457 34,000  Level Salt Lake Center
09:50PM 38.8475 -113.7592 259° West 400 460 34,000  Level Salt Lake Center
09:51PM 38.8297 -113.8964 261° West 394 453 34,000  Level Salt Lake Center
09:52PM 38.8122 -114.0347 261° West 396 456 34,000  Level Salt Lake Center
09:53PM 38.7908 -114.1744 259° West 400 460 34,000  Level Salt Lake Center
09:54PM 38.7742 -114.3128 261° West 396 456 34,000  Level Salt Lake Center
09:55PM 38.7569 -114.4483 261° West 388 447 34,000  Level Salt Lake Center
09:56PM 38.7369 -114.5847 259° West 391 450 34,000  Level Salt Lake Center
09:57PM 38.7150 -114.7481 260° West 390 449 34,000  Level Salt Lake Center
09:58PM 38.6969 -114.8839 260° West 389 448 34,000  Level Salt Lake Center
09:59PM 38.6753 -115.0222 259° West 393 452 34,000  Level Salt Lake Center
10:00PM 38.6569 -115.1556 260° West 390 449 34,000  Level Salt Lake Center
10:01PM 38.6358 -115.2881 259° West 385 443 34,000  Level Salt Lake Center
10:02PM 38.6144 -115.4286 259° West 381 438 34,000  Level Salt Lake Center
10:03PM 38.5944 -115.5633 259° West 385 443 34,000  Level Salt Lake Center
10:04PM 38.5764 -115.6958 260° West 380 437 34,000  Level Salt Lake Center
10:05PM 38.5564 -115.8278 259° West 380 437 34,000  Level Salt Lake Center
10:06PM 38.5361 -115.9592 259° West 378 435 34,000  Level Salt Lake Center
10:07PM 38.5139 -116.1158 260° West 375 432 34,000  Level Salt Lake Center
10:08PM 38.4931 -116.2458 258° West 374 430 34,000  Level Salt Lake Center
10:09PM 38.4736 -116.3764 259° West 375 432 34,000  Level Salt Lake Center
10:10PM 38.4606 -116.4542 258° West 376 433 34,000  Level Oakland Center
10:11PM 38.4408 -116.5847 259° West 377 434 34,000  Level Oakland Center
10:12PM 38.4153 -116.7442 258° West 382 440 34,000  Level Oakland Center
10:13PM 38.3944 -116.8772 259° West 385 443 34,000  Level Oakland Center
10:13PM 38.3894 -116.9033 256° West 383 441 34,000  Level Salt Lake Center
10:14PM 38.3731 -117.0097 259° West 385 443 34,000  Level Oakland Center
10:15PM 38.3517 -117.1369 258° West 387 445 34,000  Level Oakland Center
10:16PM 38.3297 -117.2703 258° West 386 444 34,000  Level Oakland Center
10:17PM 38.3086 -117.4044 259° West 386 444 34,000  Level Oakland Center
10:18PM 38.2919 -117.5386 261° West 386 444 34,000  Level Oakland Center
10:19PM 38.2781 -117.7006 264° West 387 445 34,000  Level Oakland Center
10:20PM 38.2628 -117.8342 262° West 383 441 34,000  Level Oakland Center
10:21PM 38.2450 -117.9672 260° West 384 442 34,000  Level Oakland Center
10:22PM 38.2269 -118.0986 260° West 378 435 34,000  Level Oakland Center
10:23PM 38.2097 -118.2328 261° West 375 432 34,000  Level Oakland Center
10:24PM 38.1925 -118.3636 261° West 374 430 34,000  Level Oakland Center
10:25PM 38.1750 -118.4942 260° West 373 429 34,000  Level Oakland Center
10:26PM 38.1581 -118.6228 261° West 370 426 34,000  Level Oakland Center
10:27PM 38.1408 -118.7522 260° West 370 426 34,000  Level Oakland Center
10:28PM 38.1239 -118.8758 260° West 369 425 34,000  Level Oakland Center
10:29PM 38.1067 -119.0036 260° West 369 425 34,000  Level Oakland Center
10:30PM 38.0842 -119.1558 259° West 366 421 34,000  Level Oakland Center
10:31PM 38.0661 -119.2806 260° West 364 419 34,000  Level Oakland Center
10:32PM 38.0469 -119.4075 259° West 364 419 34,000  Level Oakland Center
10:33PM 38.0322 -119.5317 261° West 358 412 34,000  Level Oakland Center
10:34PM 38.0150 -119.6567 260° West 358 412 34,000 -180 Level Oakland Center
10:35PM 37.9978 -119.7819 260° West 360 414 33,700 -900 Descending Oakland Center
10:36PM 37.9778 -119.9133 259° West 372 428 32,200 -1,620 Descending Oakland Center
10:37PM 37.9583 -120.0442 259° West 378 435 30,400 -1,920 Descending Oakland Center
10:38PM 37.9392 -120.1719 259° West 372 428 28,300 -1,680 Descending Oakland Center
10:39PM 37.9200 -120.3047 260° West 381 438 27,100 -1,140 Descending Oakland Center
10:40PM 37.9022 -120.4317 260° West 370 426 26,100 -600 Descending Oakland Center
10:42PM 37.8814 -120.5581 258° West 367 422 26,000 -840 Descending Oakland Center
10:43PM 37.8608 -120.6861 259° West 371 427 24,400 -1,920 Descending Oakland Center
10:44PM 37.8394 -120.8383 260° West 368 423 22,100 -2,520 Descending Oakland Center
10:44PM 37.8167 -120.9167 250° West 352 405 20,100 -3,360 Descending Northern Cal TRACON
10:45PM 37.7833 -121.0500 252° West 363 418 16,400 -3,420 Descending Northern Cal TRACON
10:46PM 37.7667 -121.1667 260° West 368 423 13,000 -2,820 Descending Northern Cal TRACON
10:47PM 37.7333 -121.2833 250° West 357 411 10,500 -1,620 Descending Northern Cal TRACON
10:48PM 37.7167 -121.3833 258° West 301 346 10,000 -1,020 Descending Northern Cal TRACON
10:49PM 37.7000 -121.4667 256° West 277 319 8,600 -1,020 Descending Northern Cal TRACON
10:50PM 37.6833 -121.5667 258° West 275 316 8,000 -540 Descending Northern Cal TRACON
10:51PM 37.6500 -121.6500 243° Southwest 271 312 7,600 -660 Descending Northern Cal TRACON
10:52PM 37.6333 -121.7333 256° West 248 285 6,700 -900 Descending Northern Cal TRACON
10:53PM 37.6167 -121.8167 256° West 236 272 5,800 -1,200 Descending Northern Cal TRACON
10:54PM 37.6167 -121.9000 270° West 236 272 4,400 -900 Descending Northern Cal TRACON
10:55PM 37.6000 -121.9833 256° West 212 244 4,000 -600 Descending Northern Cal TRACON
10:56PM 37.6000 -122.0500 270° West 205 236 3,300 -840 Descending Northern Cal TRACON
10:57PM 37.6333 -122.1000 310° West 182 209 2,400 -960 Descending Northern Cal TRACON
10:58PM 37.6667 -122.1500 310° West 168 193 1,400 -960 Descending Northern Cal TRACON
10:59PM 37.6833 -122.2000 293° West 142 163 400 -960 Descending Northern Cal TRACON
11:02PM 37.7167 -122.2167 270° West  Level FlightAware Approximate
11:09PM 37.7213 -122.2207 270° West  Level Estimated